createdAt,value
2016-06-25T00:00:17.274Z,961.32
2016-06-25T00:01:17.284Z,961.31
2016-06-25T00:02:17.297Z,961.3
2016-06-25T00:03:17.302Z,961.3
2016-06-25T00:04:17.317Z,961.29
2016-06-25T00:05:17.330Z,961.25
2016-06-25T00:06:17.335Z,961.2
2016-06-25T00:07:17.353Z,961.21
2016-06-25T00:08:17.362Z,961.18
2016-06-25T00:09:17.372Z,961.21
2016-06-25T00:10:17.389Z,961.21
2016-06-25T00:11:17.395Z,961.17
2016-06-25T00:12:17.404Z,961.18
2016-06-25T00:13:17.416Z,961.15
2016-06-25T00:14:17.428Z,961.13
2016-06-25T00:15:17.445Z,961.06
2016-06-25T00:16:17.447Z,961.01
2016-06-25T00:17:17.516Z,961
2016-06-25T00:18:17.474Z,960.92
2016-06-25T00:19:17.483Z,960.94
2016-06-25T00:20:17.494Z,960.92
2016-06-25T00:21:17.507Z,960.9
2016-06-25T00:22:17.522Z,960.82
2016-06-25T00:23:17.528Z,960.8
2016-06-25T00:24:17.548Z,960.73
2016-06-25T00:25:17.552Z,960.7
2016-06-25T00:26:17.565Z,960.66
2016-06-25T00:27:17.605Z,960.71
2016-06-25T00:28:17.587Z,960.67
2016-06-25T00:29:17.600Z,960.68
2016-06-25T00:30:17.610Z,960.65
2016-06-25T00:31:17.627Z,960.59
2016-06-25T00:32:17.633Z,960.59
2016-06-25T00:33:17.644Z,960.59
2016-06-25T00:34:17.654Z,960.62
2016-06-25T00:35:17.670Z,960.58
2016-06-25T00:36:17.678Z,960.57
2016-06-25T00:37:17.690Z,960.58
2016-06-25T00:38:17.704Z,960.54
2016-06-25T00:39:17.709Z,960.53
2016-06-25T00:40:17.725Z,960.46
2016-06-25T00:41:17.735Z,960.45
2016-06-25T00:42:17.745Z,960.39
2016-06-25T00:43:17.762Z,960.35
2016-06-25T00:44:17.771Z,960.29
2016-06-25T00:45:17.780Z,960.25
2016-06-25T00:46:17.793Z,960.23
2016-06-25T00:47:17.799Z,960.15
2016-06-25T00:48:17.814Z,960.1
2016-06-25T00:49:17.828Z,960.01
2016-06-25T00:50:17.837Z,959.93
2016-06-25T00:51:17.846Z,959.84
2016-06-25T00:52:17.860Z,959.8
2016-06-25T00:53:17.871Z,959.76
2016-06-25T00:54:17.882Z,959.75
2016-06-25T00:55:17.897Z,959.8
2016-06-25T00:56:17.906Z,959.76
2016-06-25T00:57:17.913Z,959.76
2016-06-25T00:58:17.923Z,959.65
2016-06-25T00:59:17.937Z,959.57
2016-06-25T01:00:17.950Z,959.48
2016-06-25T01:01:17.959Z,959.35
2016-06-25T01:02:17.971Z,959.26
2016-06-25T01:03:17.981Z,959.16
2016-06-25T01:04:17.992Z,959.08
2016-06-25T01:05:18.009Z,959.06
2016-06-25T01:06:18.014Z,959.05
2016-06-25T01:07:18.028Z,959.11
2016-06-25T01:08:18.039Z,959.17
2016-06-25T01:09:18.053Z,959.26
2016-06-25T01:10:18.064Z,959.31
2016-06-25T01:11:18.075Z,959.38
2016-06-25T01:12:18.091Z,959.4
2016-06-25T01:13:18.095Z,959.41
2016-06-25T01:14:18.113Z,959.44
2016-06-25T01:15:18.118Z,959.44
2016-06-25T01:16:18.131Z,959.42
2016-06-25T01:17:18.143Z,959.41
2016-06-25T01:18:18.205Z,959.37
2016-06-25T01:19:18.161Z,959.37
2016-06-25T01:20:18.170Z,959.31
2016-06-25T01:21:18.188Z,959.23
2016-06-25T01:22:18.197Z,959.22
2016-06-25T01:23:18.210Z,959.24
2016-06-25T01:24:18.215Z,959.23
2016-06-25T01:25:18.230Z,959.21
2016-06-25T01:26:18.241Z,959.24
2016-06-25T01:27:18.257Z,959.18
2016-06-25T01:28:18.266Z,959.23
2016-06-25T01:29:18.272Z,959.25
2016-06-25T01:30:18.319Z,959.29
2016-06-25T01:31:18.301Z,959.33
2016-06-25T01:32:18.347Z,959.33
2016-06-25T01:33:18.325Z,959.39
2016-06-25T01:34:18.333Z,959.49
2016-06-25T01:35:18.339Z,959.66
2016-06-25T01:36:18.355Z,959.74
2016-06-25T01:37:18.366Z,959.78
2016-06-25T01:38:18.377Z,959.84
2016-06-25T01:39:18.388Z,959.85
2016-06-25T01:40:18.409Z,959.86
2016-06-25T01:41:18.408Z,959.88
2016-06-25T01:42:18.424Z,959.87
2016-06-25T01:43:18.429Z,959.82
2016-06-25T01:44:18.445Z,959.82
2016-06-25T01:45:18.454Z,959.8
2016-06-25T01:46:18.467Z,959.77
2016-06-25T01:47:18.475Z,959.79
2016-06-25T01:48:18.492Z,959.82
2016-06-25T01:49:18.517Z,959.84
2016-06-25T01:50:18.509Z,959.88
2016-06-25T01:51:18.522Z,959.88
2016-06-25T01:52:18.533Z,959.86
2016-06-25T01:53:18.539Z,959.8
2016-06-25T01:54:18.554Z,959.73
2016-06-25T01:55:18.565Z,959.68
2016-06-25T01:56:18.575Z,959.66
2016-06-25T01:57:18.592Z,959.68
2016-06-25T01:58:18.610Z,959.73
2016-06-25T01:59:18.613Z,959.78
2016-06-25T02:00:18.622Z,959.75
2016-06-25T02:01:18.648Z,959.71
2016-06-25T02:02:18.647Z,959.61
2016-06-25T02:03:18.671Z,959.48
2016-06-25T02:04:18.674Z,959.39
2016-06-25T02:05:18.679Z,959.34
2016-06-25T02:06:18.690Z,959.41
2016-06-25T02:07:18.703Z,959.39
2016-06-25T02:08:18.710Z,959.44
2016-06-25T02:09:18.723Z,959.37
2016-06-25T02:10:18.734Z,959.3
2016-06-25T02:11:18.741Z,959.24
2016-06-25T02:12:18.753Z,959.17
2016-06-25T02:13:18.765Z,959.18
2016-06-25T02:14:18.779Z,959.24
2016-06-25T02:15:18.807Z,959.25
2016-06-25T02:16:18.803Z,959.24
2016-06-25T02:17:18.817Z,959.22
2016-06-25T02:18:18.828Z,959.17
2016-06-25T02:19:18.842Z,959.15
2016-06-25T02:20:18.851Z,959.1
2016-06-25T02:21:18.857Z,959.09
2016-06-25T02:22:18.875Z,959.11
2016-06-25T02:23:18.888Z,959.16
2016-06-25T02:24:18.892Z,959.15
2016-06-25T02:25:18.908Z,959.14
2016-06-25T02:26:18.910Z,959.13
2016-06-25T02:27:18.925Z,959.09
2016-06-25T02:28:18.938Z,959.11
2016-06-25T02:29:18.956Z,959.12
2016-06-25T02:30:18.961Z,959.11
2016-06-25T02:31:18.973Z,959.12
2016-06-25T02:32:18.978Z,959.18
2016-06-25T02:33:18.998Z,959.18
2016-06-25T02:34:19.007Z,959.15
2016-06-25T02:35:19.014Z,959.14
2016-06-25T02:36:19.027Z,959.15
2016-06-25T02:37:19.040Z,959.13
2016-06-25T02:38:19.052Z,959.13
2016-06-25T02:39:19.059Z,959.13
2016-06-25T02:40:19.066Z,959.14
2016-06-25T02:41:19.087Z,959.11
2016-06-25T02:42:19.096Z,959.17
2016-06-25T02:43:19.104Z,959.16
2016-06-25T02:44:19.116Z,959.21
2016-06-25T02:45:19.128Z,959.25
2016-06-25T02:46:19.149Z,959.26
2016-06-25T02:47:19.148Z,959.26
2016-06-25T02:48:19.161Z,959.27
2016-06-25T02:49:19.179Z,959.3
2016-06-25T02:50:19.181Z,959.32
2016-06-25T02:51:19.197Z,959.28
2016-06-25T02:52:19.205Z,959.27
2016-06-25T02:53:19.217Z,959.23
2016-06-25T02:54:19.248Z,959.19
2016-06-25T02:55:19.243Z,959.15
2016-06-25T02:56:19.247Z,959.11
2016-06-25T02:57:19.260Z,959.1
2016-06-25T02:58:19.270Z,959.07
2016-06-25T02:59:19.281Z,959.07
2016-06-25T03:00:19.291Z,959.09
2016-06-25T03:01:19.304Z,959.08
2016-06-25T03:02:19.322Z,959.11
2016-06-25T03:03:19.328Z,959.11
2016-06-25T03:04:19.335Z,959.14
2016-06-25T03:05:19.375Z,959.17
2016-06-25T03:06:19.362Z,959.12
2016-06-25T03:07:19.370Z,959.17
2016-06-25T03:08:19.385Z,959.1
2016-06-25T03:09:19.394Z,959.11
2016-06-25T03:10:19.401Z,959.08
2016-06-25T03:11:19.419Z,959.12
2016-06-25T03:12:19.430Z,959.11
2016-06-25T03:13:19.439Z,959.09
2016-06-25T03:14:19.449Z,959.12
2016-06-25T03:15:19.673Z,959.11
2016-06-25T03:16:19.470Z,959.11
2016-06-25T03:17:19.485Z,959.09
2016-06-25T03:18:19.490Z,959.14
2016-06-25T03:19:19.515Z,959.21
2016-06-25T03:20:19.511Z,959.25
2016-06-25T03:21:19.530Z,959.23
2016-06-25T03:22:19.541Z,959.33
2016-06-25T03:23:19.551Z,959.34
2016-06-25T03:24:19.563Z,959.32
2016-06-25T03:25:19.572Z,959.3
2016-06-25T03:26:19.581Z,959.31
2016-06-25T03:27:19.593Z,959.3
2016-06-25T03:28:19.603Z,959.34
2016-06-25T03:29:19.619Z,959.39
2016-06-25T03:30:19.626Z,959.37
2016-06-25T03:31:19.640Z,959.4
2016-06-25T03:32:19.646Z,959.42
2016-06-25T03:33:19.656Z,959.43
2016-06-25T03:34:19.673Z,959.45
2016-06-25T03:35:19.681Z,959.44
2016-06-25T03:36:19.691Z,959.47
2016-06-25T03:37:19.705Z,959.5
2016-06-25T03:38:19.716Z,959.53
2016-06-25T03:39:19.729Z,959.52
2016-06-25T03:40:19.741Z,959.54
2016-06-25T03:41:19.748Z,959.49
2016-06-25T03:42:19.764Z,959.48
2016-06-25T03:43:19.774Z,959.49
2016-06-25T03:44:19.783Z,959.49
2016-06-25T03:45:19.791Z,959.52
2016-06-25T03:46:19.802Z,959.44
2016-06-25T03:47:19.815Z,959.47
2016-06-25T03:48:19.828Z,959.46
2016-06-25T03:49:19.838Z,959.44
2016-06-25T03:50:19.845Z,959.43
2016-06-25T03:51:19.861Z,959.36
2016-06-25T03:52:19.875Z,959.35
2016-06-25T03:53:19.880Z,959.34
2016-06-25T03:54:19.894Z,959.3
2016-06-25T03:55:19.907Z,959.3
2016-06-25T03:56:19.918Z,959.29
2016-06-25T03:57:19.928Z,959.3
2016-06-25T03:58:19.938Z,959.31
2016-06-25T03:59:19.950Z,959.36
2016-06-25T04:00:19.961Z,959.41
2016-06-25T04:01:19.982Z,959.39
2016-06-25T04:02:19.986Z,959.35
2016-06-25T04:03:19.997Z,959.26
2016-06-25T04:04:20.008Z,959.27
2016-06-25T04:05:20.017Z,959.22
2016-06-25T04:06:20.027Z,959.21
2016-06-25T04:07:20.043Z,959.17
2016-06-25T04:08:20.048Z,959.21
2016-06-25T04:09:20.061Z,959.22
2016-06-25T04:10:20.073Z,959.2
2016-06-25T04:11:20.079Z,959.27
2016-06-25T04:12:20.091Z,959.3
2016-06-25T04:13:20.111Z,959.23
2016-06-25T04:14:20.121Z,959.31
2016-06-25T04:15:20.122Z,959.29
2016-06-25T04:16:20.137Z,959.3
2016-06-25T04:17:20.154Z,959.27
2016-06-25T04:18:20.162Z,959.28
2016-06-25T04:19:20.170Z,959.29
2016-06-25T04:20:20.186Z,959.28
2016-06-25T04:21:20.190Z,959.26
2016-06-25T04:22:20.205Z,959.25
2016-06-25T04:23:20.219Z,959.27
2016-06-25T04:24:20.235Z,959.3
2016-06-25T04:25:20.239Z,959.3
2016-06-25T04:26:20.250Z,959.34
2016-06-25T04:27:20.262Z,959.37
2016-06-25T04:28:20.273Z,959.4
2016-06-25T04:29:20.279Z,959.42
2016-06-25T04:30:20.293Z,959.44
2016-06-25T04:31:20.303Z,959.43
2016-06-25T04:32:20.320Z,959.44
2016-06-25T04:33:20.338Z,959.44
2016-06-25T04:34:20.338Z,959.49
2016-06-25T04:35:20.354Z,959.48
2016-06-25T04:36:20.361Z,959.49
2016-06-25T04:37:20.376Z,959.48
2016-06-25T04:38:20.380Z,959.51
2016-06-25T04:39:20.389Z,959.51
2016-06-25T04:40:20.407Z,959.48
2016-06-25T04:41:20.415Z,959.47
2016-06-25T04:42:20.427Z,959.49
2016-06-25T04:43:20.443Z,959.44
2016-06-25T04:44:20.450Z,959.41
2016-06-25T04:45:20.458Z,959.43
2016-06-25T04:46:20.473Z,959.4
2016-06-25T04:47:20.488Z,959.38
2016-06-25T04:48:20.497Z,959.37
2016-06-25T04:49:20.506Z,959.39
2016-06-25T04:50:20.511Z,959.35
2016-06-25T04:51:20.523Z,959.37
2016-06-25T04:52:20.535Z,959.36
2016-06-25T04:53:20.551Z,959.3
2016-06-25T04:54:20.558Z,959.33
2016-06-25T04:55:20.570Z,959.32
2016-06-25T04:56:20.584Z,959.33
2016-06-25T04:57:20.590Z,959.36
2016-06-25T04:58:20.606Z,959.31
2016-06-25T04:59:20.614Z,959.32
2016-06-25T05:00:20.622Z,959.33
2016-06-25T05:01:20.638Z,959.38
2016-06-25T05:02:20.647Z,959.34
2016-06-25T05:03:20.655Z,959.39
2016-06-25T05:04:20.675Z,959.37
2016-06-25T05:05:20.682Z,959.34
2016-06-25T05:06:20.692Z,959.34
2016-06-25T05:07:20.708Z,959.35
2016-06-25T05:08:20.717Z,959.36
2016-06-25T05:09:20.728Z,959.36
2016-06-25T05:10:20.738Z,959.39
2016-06-25T05:11:20.746Z,959.43
2016-06-25T05:12:20.767Z,959.4
2016-06-25T05:13:20.771Z,959.45
2016-06-25T05:14:20.782Z,959.51
2016-06-25T05:15:20.794Z,959.54
2016-06-25T05:16:20.800Z,959.56
2016-06-25T05:17:20.814Z,959.53
2016-06-25T05:18:20.826Z,959.54
2016-06-25T05:19:20.838Z,959.55
2016-06-25T05:20:20.848Z,959.58
2016-06-25T05:21:20.857Z,959.58
2016-06-25T05:22:20.875Z,959.57
2016-06-25T05:23:20.885Z,959.56
2016-06-25T05:24:20.898Z,959.57
2016-06-25T05:25:20.905Z,959.55
2016-06-25T05:26:20.920Z,959.54
2016-06-25T05:27:20.930Z,959.53
2016-06-25T05:28:20.938Z,959.49
2016-06-25T05:29:20.953Z,959.48
2016-06-25T05:30:20.963Z,959.47
2016-06-25T05:31:20.978Z,959.49
2016-06-25T05:32:20.985Z,959.49
2016-06-25T05:33:20.992Z,959.46
2016-06-25T05:34:21.007Z,959.45
2016-06-25T05:35:21.021Z,959.42
2016-06-25T05:36:21.028Z,959.46
2016-06-25T05:37:21.039Z,959.45
2016-06-25T05:38:21.050Z,959.45
2016-06-25T05:39:21.062Z,959.51
2016-06-25T05:40:21.085Z,959.46
2016-06-25T05:41:21.087Z,959.5
2016-06-25T05:42:21.109Z,959.53
2016-06-25T05:43:21.110Z,959.53
2016-06-25T05:44:21.114Z,959.62
2016-06-25T05:45:21.131Z,959.6
2016-06-25T05:46:21.137Z,959.65
2016-06-25T05:47:21.156Z,959.7
2016-06-25T05:48:21.161Z,959.72
2016-06-25T05:49:21.174Z,959.76
2016-06-25T05:50:21.183Z,959.76
2016-06-25T05:51:21.199Z,959.82
2016-06-25T05:52:21.216Z,959.84
2016-06-25T05:53:21.218Z,959.82
2016-06-25T05:54:21.232Z,959.86
2016-06-25T05:55:21.246Z,959.81
2016-06-25T05:56:21.262Z,959.83
2016-06-25T05:57:21.260Z,959.82
2016-06-25T05:58:21.272Z,959.86
2016-06-25T05:59:21.286Z,959.84
2016-06-25T06:00:21.298Z,959.86
2016-06-25T06:01:21.303Z,959.89
2016-06-25T06:02:21.317Z,959.9
2016-06-25T06:03:21.338Z,959.9
2016-06-25T06:04:21.341Z,959.95
2016-06-25T06:05:21.351Z,959.92
2016-06-25T06:06:21.362Z,959.95
2016-06-25T06:07:21.380Z,959.91
2016-06-25T06:08:21.384Z,959.94
2016-06-25T06:09:21.398Z,959.94
2016-06-25T06:10:21.411Z,959.98
2016-06-25T06:11:21.422Z,960
2016-06-25T06:12:21.439Z,960.01
2016-06-25T06:13:21.442Z,960.08
2016-06-25T06:14:21.449Z,960.05
2016-06-25T06:15:21.469Z,960.11
2016-06-25T06:16:21.481Z,960.15
2016-06-25T06:17:21.488Z,960.11
2016-06-25T06:18:21.502Z,960.13
2016-06-25T06:19:21.510Z,960.13
2016-06-25T06:20:21.520Z,960.13
2016-06-25T06:21:21.533Z,960.14
2016-06-25T06:22:21.542Z,960.14
2016-06-25T06:23:21.558Z,960.18
2016-06-25T06:24:21.567Z,960.14
2016-06-25T06:25:21.590Z,960.13
2016-06-25T06:26:21.591Z,960.14
2016-06-25T06:27:21.602Z,960.19
2016-06-25T06:28:21.610Z,960.22
2016-06-25T06:29:21.623Z,960.23
2016-06-25T06:30:21.636Z,960.22
2016-06-25T06:31:21.643Z,960.25
2016-06-25T06:32:21.656Z,960.28
2016-06-25T06:33:21.672Z,960.27
2016-06-25T06:34:21.681Z,960.28
2016-06-25T06:35:21.694Z,960.33
2016-06-25T06:36:21.702Z,960.3
2016-06-25T06:37:21.706Z,960.32
2016-06-25T06:38:21.734Z,960.29
2016-06-25T06:39:21.735Z,960.34
2016-06-25T06:40:21.749Z,960.35
2016-06-25T06:41:21.755Z,960.36
2016-06-25T06:42:21.765Z,960.34
2016-06-25T06:43:21.774Z,960.36
2016-06-25T06:44:21.787Z,960.33
2016-06-25T06:45:21.800Z,960.36
2016-06-25T06:46:21.818Z,960.32
2016-06-25T06:47:21.825Z,960.39
2016-06-25T06:48:21.842Z,960.37
2016-06-25T06:49:21.850Z,960.39
2016-06-25T06:50:21.858Z,960.39
2016-06-25T06:51:21.874Z,960.38
2016-06-25T06:52:21.877Z,960.38
2016-06-25T06:53:21.890Z,960.37
2016-06-25T06:54:21.902Z,960.34
2016-06-25T06:55:21.922Z,960.34
2016-06-25T06:56:21.934Z,960.34
2016-06-25T06:57:21.937Z,960.36
2016-06-25T06:58:21.946Z,960.36
2016-06-25T06:59:21.955Z,960.41
2016-06-25T07:00:21.970Z,960.43
2016-06-25T07:01:21.984Z,960.4
2016-06-25T07:02:21.995Z,960.41
2016-06-25T07:03:22.005Z,960.39
2016-06-25T07:04:22.017Z,960.41
2016-06-25T07:05:22.026Z,960.37
2016-06-25T07:06:22.038Z,960.38
2016-06-25T07:07:22.058Z,960.33
2016-06-25T07:08:22.070Z,960.34
2016-06-25T07:09:22.071Z,960.31
2016-06-25T07:10:22.079Z,960.36
2016-06-25T07:11:22.095Z,960.36
2016-06-25T07:12:22.106Z,960.33
2016-06-25T07:13:22.118Z,960.32
2016-06-25T07:14:22.126Z,960.32
2016-06-25T07:15:22.139Z,960.33
2016-06-25T07:16:22.153Z,960.34
2016-06-25T07:17:22.158Z,960.33
2016-06-25T07:18:22.175Z,960.33
2016-06-25T07:19:22.188Z,960.31
2016-06-25T07:20:22.199Z,960.27
2016-06-25T07:21:22.252Z,960.28
2016-06-25T07:22:22.217Z,960.23
2016-06-25T07:23:22.232Z,960.18
2016-06-25T07:24:22.244Z,960.19
2016-06-25T07:25:22.252Z,960.19
2016-06-25T07:26:22.267Z,960.19
2016-06-25T07:27:22.270Z,960.18
2016-06-25T07:28:22.280Z,960.2
2016-06-25T07:29:22.296Z,960.26
2016-06-25T07:30:22.310Z,960.18
2016-06-25T07:31:22.318Z,960.16
2016-06-25T07:32:22.329Z,960.18
2016-06-25T07:33:22.341Z,960.17
2016-06-25T07:34:22.349Z,960.18
2016-06-25T07:35:22.393Z,960.2
2016-06-25T07:36:22.370Z,960.19
2016-06-25T07:37:22.385Z,960.21
2016-06-25T07:38:22.398Z,960.18
2016-06-25T07:39:22.411Z,960.19
2016-06-25T07:40:22.426Z,960.16
2016-06-25T07:41:22.430Z,960.22
2016-06-25T07:42:22.443Z,960.21
2016-06-25T07:43:22.455Z,960.18
2016-06-25T07:44:22.466Z,960.19
2016-06-25T07:45:22.482Z,960.23
2016-06-25T07:46:22.484Z,960.21
2016-06-25T07:47:22.515Z,960.22
2016-06-25T07:48:22.537Z,960.19
2016-06-25T07:49:22.521Z,960.18
2016-06-25T07:50:22.535Z,960.2
2016-06-25T07:51:22.547Z,960.22
2016-06-25T07:52:22.554Z,960.16
2016-06-25T07:53:22.570Z,960.18
2016-06-25T07:54:22.577Z,960.19
2016-06-25T07:55:22.607Z,960.16
2016-06-25T07:56:22.598Z,960.19
2016-06-25T07:57:22.612Z,960.18
2016-06-25T07:58:22.630Z,960.15
2016-06-25T07:59:22.633Z,960.11
2016-06-25T08:00:22.638Z,960.11
2016-06-25T08:01:22.651Z,960.1
2016-06-25T08:02:22.663Z,960.05
2016-06-25T08:03:22.675Z,960.08
2016-06-25T08:04:22.697Z,960.05
2016-06-25T08:05:22.697Z,960
2016-06-25T08:06:22.710Z,960
2016-06-25T08:07:22.718Z,959.99
2016-06-25T08:08:22.730Z,959.93
2016-06-25T08:09:22.742Z,959.93
2016-06-25T08:10:22.754Z,959.91
2016-06-25T08:11:22.767Z,959.92
2016-06-25T08:12:22.775Z,959.95
2016-06-25T08:13:22.790Z,959.96
2016-06-25T08:14:22.802Z,959.96
2016-06-25T08:15:22.811Z,960.02
2016-06-25T08:16:22.838Z,960.01
2016-06-25T08:17:22.859Z,960.05
2016-06-25T08:18:22.843Z,960.05
2016-06-25T08:19:22.855Z,960.02
2016-06-25T08:20:22.902Z,960.06
2016-06-25T08:21:22.873Z,960.03
2016-06-25T08:22:22.895Z,960.02
2016-06-25T08:23:22.902Z,960.03
2016-06-25T08:24:22.907Z,960.04
2016-06-25T08:25:22.939Z,960
2016-06-25T08:26:22.962Z,960.02
2016-06-25T08:27:22.949Z,960
2016-06-25T08:28:22.953Z,959.95
2016-06-25T08:29:22.970Z,959.94
2016-06-25T08:30:22.976Z,959.95
2016-06-25T08:31:22.989Z,959.93
2016-06-25T08:32:22.999Z,959.95
2016-06-25T08:33:23.006Z,959.97
2016-06-25T08:34:23.023Z,959.95
2016-06-25T08:35:23.034Z,959.97
2016-06-25T08:36:23.043Z,959.98
2016-06-25T08:37:23.059Z,959.98
2016-06-25T08:38:23.066Z,960.01
2016-06-25T08:39:23.075Z,959.99
2016-06-25T08:40:23.083Z,960.05
2016-06-25T08:41:23.101Z,960.05
2016-06-25T08:42:23.109Z,960.07
2016-06-25T08:43:23.121Z,960.06
2016-06-25T08:44:23.135Z,960.07
2016-06-25T08:45:23.139Z,960.05
2016-06-25T08:46:23.162Z,960.05
2016-06-25T08:47:23.163Z,960.02
2016-06-25T08:48:23.186Z,960.01
2016-06-25T08:49:23.195Z,959.98
2016-06-25T08:50:23.198Z,959.93
2016-06-25T08:51:23.210Z,959.94
2016-06-25T08:52:23.221Z,959.91
2016-06-25T08:53:23.236Z,959.94
2016-06-25T08:54:23.241Z,959.92
2016-06-25T08:55:23.259Z,959.92
2016-06-25T08:56:23.271Z,959.94
2016-06-25T08:57:23.278Z,959.9
2016-06-25T08:58:23.290Z,959.89
2016-06-25T08:59:23.304Z,959.88
2016-06-25T09:00:23.312Z,959.85
2016-06-25T09:01:23.318Z,959.85
2016-06-25T09:02:23.336Z,959.87
2016-06-25T09:03:23.346Z,959.9
2016-06-25T09:04:23.366Z,959.9
2016-06-25T09:05:23.370Z,959.89
2016-06-25T09:06:23.378Z,959.88
2016-06-25T09:07:23.387Z,959.86
2016-06-25T09:08:23.404Z,959.85
2016-06-25T09:09:23.412Z,959.86
2016-06-25T09:10:23.421Z,959.86
2016-06-25T09:11:23.435Z,959.84
2016-06-25T09:12:23.449Z,959.84
2016-06-25T09:13:23.459Z,959.86
2016-06-25T09:14:23.473Z,959.82
2016-06-25T09:15:23.479Z,959.79
2016-06-25T09:16:23.495Z,959.83
2016-06-25T09:17:23.506Z,959.79
2016-06-25T09:18:23.523Z,959.79
2016-06-25T09:19:23.525Z,959.75
2016-06-25T09:20:23.536Z,959.81
2016-06-25T09:21:23.551Z,959.78
2016-06-25T09:22:23.559Z,959.76
2016-06-25T09:23:23.574Z,959.74
2016-06-25T09:24:23.583Z,959.75
2016-06-25T09:25:23.595Z,959.72
2016-06-25T09:26:23.603Z,959.76
2016-06-25T09:27:23.617Z,959.76
2016-06-25T09:28:23.627Z,959.74
2016-06-25T09:29:23.637Z,959.72
2016-06-25T09:30:23.654Z,959.72
2016-06-25T09:31:23.664Z,959.72
2016-06-25T09:32:23.672Z,959.77
2016-06-25T09:33:23.692Z,959.72
2016-06-25T09:34:23.698Z,959.73
2016-06-25T09:35:23.710Z,959.71
2016-06-25T09:36:23.720Z,959.69
2016-06-25T09:37:23.735Z,959.67
2016-06-25T09:38:23.740Z,959.66
2016-06-25T09:39:23.756Z,959.65
2016-06-25T09:40:23.765Z,959.64
2016-06-25T09:41:23.783Z,959.66
2016-06-25T09:42:23.790Z,959.65
2016-06-25T09:43:23.794Z,959.64
2016-06-25T09:44:23.842Z,959.61
2016-06-25T09:45:23.824Z,959.64
2016-06-25T09:46:23.838Z,959.63
2016-06-25T09:47:23.840Z,959.62
2016-06-25T09:48:23.857Z,959.64
2016-06-25T09:49:23.864Z,959.61
2016-06-25T09:50:23.878Z,959.63
2016-06-25T09:51:23.886Z,959.61
2016-06-25T09:52:23.907Z,959.58
2016-06-25T09:53:23.910Z,959.63
2016-06-25T09:54:23.923Z,959.57
2016-06-25T09:55:23.937Z,959.56
2016-06-25T09:56:23.946Z,959.56
2016-06-25T09:57:23.959Z,959.57
2016-06-25T09:58:23.974Z,959.59
2016-06-25T09:59:23.974Z,959.61
2016-06-25T10:00:24.002Z,959.57
2016-06-25T10:01:24.011Z,959.55
2016-06-25T10:02:24.013Z,959.53
2016-06-25T10:03:24.024Z,959.55
2016-06-25T10:04:24.037Z,959.55
2016-06-25T10:05:24.050Z,959.55
2016-06-25T10:06:24.058Z,959.52
2016-06-25T10:07:24.067Z,959.52
2016-06-25T10:08:24.093Z,959.53
2016-06-25T10:09:24.100Z,959.46
2016-06-25T10:10:24.121Z,959.44
2016-06-25T10:11:24.122Z,959.49
2016-06-25T10:12:24.128Z,959.45
2016-06-25T10:13:24.140Z,959.43
2016-06-25T10:14:24.153Z,959.41
2016-06-25T10:15:24.168Z,959.45
2016-06-25T10:16:24.171Z,959.48
2016-06-25T10:17:24.181Z,959.46
2016-06-25T10:18:24.194Z,959.52
2016-06-25T10:19:24.208Z,959.47
2016-06-25T10:20:24.215Z,959.49
2016-06-25T10:21:24.225Z,959.44
2016-06-25T10:22:24.243Z,959.43
2016-06-25T10:23:24.257Z,959.42
2016-06-25T10:24:24.261Z,959.39
2016-06-25T10:25:24.279Z,959.42
2016-06-25T10:26:24.302Z,959.35
2016-06-25T10:27:24.299Z,959.33
2016-06-25T10:28:24.319Z,959.36
2016-06-25T10:29:24.354Z,959.32
2016-06-25T10:30:24.329Z,959.3
2016-06-25T10:31:24.342Z,959.34
2016-06-25T10:32:24.355Z,959.33
2016-06-25T10:33:24.367Z,959.31
2016-06-25T10:34:24.376Z,959.35
2016-06-25T10:35:24.389Z,959.37
2016-06-25T10:36:24.397Z,959.4
2016-06-25T10:37:24.417Z,959.41
2016-06-25T10:38:24.426Z,959.4
2016-06-25T10:39:24.441Z,959.4
2016-06-25T10:40:24.443Z,959.38
2016-06-25T10:41:24.460Z,959.39
2016-06-25T10:42:24.485Z,959.35
2016-06-25T10:43:24.481Z,959.35
2016-06-25T10:44:24.490Z,959.36
2016-06-25T10:45:24.502Z,959.37
2016-06-25T10:46:24.513Z,959.34
2016-06-25T10:47:24.527Z,959.3
2016-06-25T10:48:24.542Z,959.33
2016-06-25T10:49:24.558Z,959.3
2016-06-25T10:50:24.577Z,959.29
2016-06-25T10:51:24.572Z,959.28
2016-06-25T10:52:24.590Z,959.24
2016-06-25T10:53:24.593Z,959.25
2016-06-25T10:54:24.608Z,959.24
2016-06-25T10:55:24.620Z,959.24
2016-06-25T10:56:24.636Z,959.19
2016-06-25T10:57:24.645Z,959.21
2016-06-25T10:58:24.654Z,959.2
2016-06-25T10:59:24.664Z,959.22
2016-06-25T11:00:24.669Z,959.2
2016-06-25T11:01:24.692Z,959.16
2016-06-25T11:02:24.697Z,959.14
2016-06-25T11:03:24.712Z,959.16
2016-06-25T11:04:24.728Z,959.14
2016-06-25T11:05:24.735Z,959.08
2016-06-25T11:06:24.745Z,959.07
2016-06-25T11:07:24.755Z,959
2016-06-25T11:08:24.766Z,958.97
2016-06-25T11:09:24.776Z,958.96
2016-06-25T11:10:24.823Z,958.94
2016-06-25T11:11:24.803Z,959
2016-06-25T11:12:24.818Z,958.91
2016-06-25T11:13:24.827Z,958.89
2016-06-25T11:14:24.839Z,958.88
2016-06-25T11:15:24.844Z,958.89
2016-06-25T11:16:24.857Z,958.87
2016-06-25T11:17:24.889Z,958.86
2016-06-25T11:18:24.882Z,958.89
2016-06-25T11:19:24.975Z,958.87
2016-06-25T11:20:24.908Z,958.9
2016-06-25T11:21:24.918Z,958.87
2016-06-25T11:22:24.939Z,958.87
2016-06-25T11:23:24.948Z,958.84
2016-06-25T11:24:24.949Z,958.84
2016-06-25T11:25:24.967Z,958.79
2016-06-25T11:26:24.970Z,958.79
2016-06-25T11:27:24.986Z,958.78
2016-06-25T11:28:24.998Z,958.8
2016-06-25T11:29:25.012Z,958.79
2016-06-25T11:30:25.019Z,958.76
2016-06-25T11:31:25.035Z,958.74
2016-06-25T11:32:25.044Z,958.75
2016-06-25T11:33:25.058Z,958.7
2016-06-25T11:34:25.080Z,958.7
2016-06-25T11:35:25.083Z,958.67
2016-06-25T11:36:25.087Z,958.64
2016-06-25T11:37:25.107Z,958.63
2016-06-25T11:38:25.121Z,958.65
2016-06-25T11:39:25.127Z,958.63
2016-06-25T11:40:25.138Z,958.63
2016-06-25T11:41:25.153Z,958.58
2016-06-25T11:42:25.162Z,958.62
2016-06-25T11:43:25.170Z,958.59
2016-06-25T11:44:25.183Z,958.61
2016-06-25T11:45:25.197Z,958.59
2016-06-25T11:46:25.210Z,958.6
2016-06-25T11:47:25.227Z,958.57
2016-06-25T11:48:25.235Z,958.59
2016-06-25T11:49:25.242Z,958.55
2016-06-25T11:50:25.259Z,958.58
2016-06-25T11:51:25.266Z,958.57
2016-06-25T11:52:25.278Z,958.53
2016-06-25T11:53:25.298Z,958.52
2016-06-25T11:54:25.305Z,958.56
2016-06-25T11:55:25.314Z,958.53
2016-06-25T11:56:25.325Z,958.5
2016-06-25T11:57:25.337Z,958.48
2016-06-25T11:58:25.350Z,958.44
2016-06-25T11:59:25.366Z,958.45
2016-06-25T12:00:25.375Z,958.44
2016-06-25T12:01:25.387Z,958.37
2016-06-25T12:02:25.394Z,958.38
2016-06-25T12:03:25.411Z,958.35
2016-06-25T12:04:25.426Z,958.37
2016-06-25T12:05:25.430Z,958.36
2016-06-25T12:06:25.448Z,958.38
2016-06-25T12:07:25.457Z,958.36
2016-06-25T12:08:25.470Z,958.31
2016-06-25T12:09:25.480Z,958.32
2016-06-25T12:10:25.494Z,958.31
2016-06-25T12:11:25.503Z,958.25
2016-06-25T12:12:25.514Z,958.25
2016-06-25T12:13:25.528Z,958.24
2016-06-25T12:14:25.539Z,958.21
2016-06-25T12:15:25.562Z,958.23
2016-06-25T12:16:25.564Z,958.25
2016-06-25T12:17:25.582Z,958.22
2016-06-25T12:18:25.585Z,958.22
2016-06-25T12:19:25.648Z,958.17
2016-06-25T12:20:25.615Z,958.1
2016-06-25T12:21:25.621Z,958.1
2016-06-25T12:22:25.630Z,958.07
2016-06-25T12:23:25.646Z,958.04
2016-06-25T12:24:25.658Z,958.05
2016-06-25T12:25:25.672Z,958.03
2016-06-25T12:26:25.679Z,958.01
2016-06-25T12:27:25.691Z,958.02
2016-06-25T12:28:25.706Z,957.98
2016-06-25T12:29:25.718Z,957.96
2016-06-25T12:30:25.728Z,957.92
2016-06-25T12:31:25.736Z,957.89